sensor_id;sensor_type;location;lat;lon;timestamp;temperature;humidity
22795;DHT22;11564;50.920;11.612;2022-07-29T00:01:42;17.00;67.40
22795;DHT22;11564;50.920;11.612;2022-07-29T00:04:08;17.00;67.70
22795;DHT22;11564;50.920;11.612;2022-07-29T00:06:34;17.00;67.00
22795;DHT22;11564;50.920;11.612;2022-07-29T00:08:59;17.00;67.00
22795;DHT22;11564;50.920;11.612;2022-07-29T00:11:25;17.00;66.80
22795;DHT22;11564;50.920;11.612;2022-07-29T00:13:50;17.00;67.20
22795;DHT22;11564;50.920;11.612;2022-07-29T00:16:16;16.90;67.70
22795;DHT22;11564;50.920;11.612;2022-07-29T00:18:41;16.80;67.90
22795;DHT22;11564;50.920;11.612;2022-07-29T00:21:07;16.80;68.30
22795;DHT22;11564;50.920;11.612;2022-07-29T00:23:33;16.70;68.20
22795;DHT22;11564;50.920;11.612;2022-07-29T00:25:58;16.60;68.20
22795;DHT22;11564;50.920;11.612;2022-07-29T00:28:24;16.60;68.30
22795;DHT22;11564;50.920;11.612;2022-07-29T00:30:49;16.50;69.10
22795;DHT22;11564;50.920;11.612;2022-07-29T00:33:15;16.50;69.50
22795;DHT22;11564;50.920;11.612;2022-07-29T00:35:41;16.40;69.40
22795;DHT22;11564;50.920;11.612;2022-07-29T00:38:10;16.30;70.00
22795;DHT22;11564;50.920;11.612;2022-07-29T00:40:36;16.20;70.50
22795;DHT22;11564;50.920;11.612;2022-07-29T00:43:02;16.20;71.20
22795;DHT22;11564;50.920;11.612;2022-07-29T00:45:28;16.10;71.50
22795;DHT22;11564;50.920;11.612;2022-07-29T00:47:55;16.10;71.30
22795;DHT22;11564;50.920;11.612;2022-07-29T00:50:20;16.10;71.70
22795;DHT22;11564;50.920;11.612;2022-07-29T00:52:46;16.00;72.30
22795;DHT22;11564;50.920;11.612;2022-07-29T00:55:14;16.00;72.60
22795;DHT22;11564;50.920;11.612;2022-07-29T00:57:41;16.00;72.60
22795;DHT22;11564;50.920;11.612;2022-07-29T01:00:10;15.90;73.00
22795;DHT22;11564;50.920;11.612;2022-07-29T01:02:36;15.90;73.00
22795;DHT22;11564;50.920;11.612;2022-07-29T01:05:04;15.80;73.60
22795;DHT22;11564;50.920;11.612;2022-07-29T01:07:30;15.70;73.70
22795;DHT22;11564;50.920;11.612;2022-07-29T01:09:57;15.70;74.30
22795;DHT22;11564;50.920;11.612;2022-07-29T01:12:27;15.70;74.60
22795;DHT22;11564;50.920;11.612;2022-07-29T01:14:55;15.60;74.50
22795;DHT22;11564;50.920;11.612;2022-07-29T01:17:26;15.60;74.90
22795;DHT22;11564;50.920;11.612;2022-07-29T01:20:02;15.50;75.60
22795;DHT22;11564;50.920;11.612;2022-07-29T01:30:31;15.30;76.90
22795;DHT22;11564;50.920;11.612;2022-07-29T01:33:01;15.30;77.20
22795;DHT22;11564;50.920;11.612;2022-07-29T01:35:36;15.20;77.50
22795;DHT22;11564;50.920;11.612;2022-07-29T01:38:13;15.20;78.50
22795;DHT22;11564;50.920;11.612;2022-07-29T01:40:46;15.20;78.50
22795;DHT22;11564;50.920;11.612;2022-07-29T01:43:16;15.10;78.50
22795;DHT22;11564;50.920;11.612;2022-07-29T01:46:00;15.00;78.60
22795;DHT22;11564;50.920;11.612;2022-07-29T01:51:24;15.00;78.80
22795;DHT22;11564;50.920;11.612;2022-07-29T01:56:28;14.90;79.40
22795;DHT22;11564;50.920;11.612;2022-07-29T01:58:57;14.90;79.80
22795;DHT22;11564;50.920;11.612;2022-07-29T02:01:24;14.80;79.90
22795;DHT22;11564;50.920;11.612;2022-07-29T02:03:50;14.80;80.00
22795;DHT22;11564;50.920;11.612;2022-07-29T02:06:21;14.80;80.10
22795;DHT22;11564;50.920;11.612;2022-07-29T02:08:49;14.70;80.00
22795;DHT22;11564;50.920;11.612;2022-07-29T02:11:17;14.70;80.40
22795;DHT22;11564;50.920;11.612;2022-07-29T02:13:43;14.60;80.90
22795;DHT22;11564;50.920;11.612;2022-07-29T02:16:10;14.60;81.30
22795;DHT22;11564;50.920;11.612;2022-07-29T02:18:38;14.60;81.30
22795;DHT22;11564;50.920;11.612;2022-07-29T02:21:04;14.50;81.20
22795;DHT22;11564;50.920;11.612;2022-07-29T02:23:31;14.50;81.90
22795;DHT22;11564;50.920;11.612;2022-07-29T02:25:59;14.40;81.90
22795;DHT22;11564;50.920;11.612;2022-07-29T02:28:27;14.30;82.20
22795;DHT22;11564;50.920;11.612;2022-07-29T02:30:58;14.30;82.70
22795;DHT22;11564;50.920;11.612;2022-07-29T02:33:25;14.30;83.00
22795;DHT22;11564;50.920;11.612;2022-07-29T02:35:52;14.20;83.40
22795;DHT22;11564;50.920;11.612;2022-07-29T02:38:18;14.20;84.30
22795;DHT22;11564;50.920;11.612;2022-07-29T02:41:09;14.20;85.30
22795;DHT22;11564;50.920;11.612;2022-07-29T02:43:37;14.10;84.80
22795;DHT22;11564;50.920;11.612;2022-07-29T02:46:05;14.00;84.80
22795;DHT22;11564;50.920;11.612;2022-07-29T02:48:38;14.00;85.00
22795;DHT22;11564;50.920;11.612;2022-07-29T02:51:40;13.90;85.30
22795;DHT22;11564;50.920;11.612;2022-07-29T02:54:07;13.80;85.40
22795;DHT22;11564;50.920;11.612;2022-07-29T02:56:34;13.70;86.80
22795;DHT22;11564;50.920;11.612;2022-07-29T02:59:06;13.70;87.40
22795;DHT22;11564;50.920;11.612;2022-07-29T03:01:34;13.60;87.60
22795;DHT22;11564;50.920;11.612;2022-07-29T03:04:04;13.60;87.20
22795;DHT22;11564;50.920;11.612;2022-07-29T03:06:30;13.50;87.10
22795;DHT22;11564;50.920;11.612;2022-07-29T03:08:58;13.50;87.40
22795;DHT22;11564;50.920;11.612;2022-07-29T03:11:24;13.50;88.30
22795;DHT22;11564;50.920;11.612;2022-07-29T03:13:51;13.40;88.40
22795;DHT22;11564;50.920;11.612;2022-07-29T03:16:19;13.40;88.50
22795;DHT22;11564;50.920;11.612;2022-07-29T03:18:44;13.30;89.00
22795;DHT22;11564;50.920;11.612;2022-07-29T03:21:10;13.30;89.20
22795;DHT22;11564;50.920;11.612;2022-07-29T03:23:36;13.30;89.50
22795;DHT22;11564;50.920;11.612;2022-07-29T03:26:02;13.30;89.40
22795;DHT22;11564;50.920;11.612;2022-07-29T03:28:27;13.30;89.80
22795;DHT22;11564;50.920;11.612;2022-07-29T03:30:53;13.30;90.10
22795;DHT22;11564;50.920;11.612;2022-07-29T03:33:19;13.30;90.10
22795;DHT22;11564;50.920;11.612;2022-07-29T03:35:45;13.30;90.10
22795;DHT22;11564;50.920;11.612;2022-07-29T03:38:11;13.30;90.20
22795;DHT22;11564;50.920;11.612;2022-07-29T03:40:44;13.30;90.30
22795;DHT22;11564;50.920;11.612;2022-07-29T03:43:14;13.40;90.40
22795;DHT22;11564;50.920;11.612;2022-07-29T03:45:43;13.40;90.60
22795;DHT22;11564;50.920;11.612;2022-07-29T03:48:13;13.50;90.70
22795;DHT22;11564;50.920;11.612;2022-07-29T03:50:39;13.50;90.70
22795;DHT22;11564;50.920;11.612;2022-07-29T03:53:05;13.50;90.60
22795;DHT22;11564;50.920;11.612;2022-07-29T03:55:36;13.60;90.50
22795;DHT22;11564;50.920;11.612;2022-07-29T03:58:03;13.60;90.50
22795;DHT22;11564;50.920;11.612;2022-07-29T04:00:29;13.70;90.60
22795;DHT22;11564;50.920;11.612;2022-07-29T04:02:56;13.70;90.50
22795;DHT22;11564;50.920;11.612;2022-07-29T04:05:22;13.70;90.50
22795;DHT22;11564;50.920;11.612;2022-07-29T04:07:48;13.70;90.70
22795;DHT22;11564;50.920;11.612;2022-07-29T04:10:15;13.80;90.40
22795;DHT22;11564;50.920;11.612;2022-07-29T04:12:41;13.80;90.30
22795;DHT22;11564;50.920;11.612;2022-07-29T04:15:07;13.90;90.50
22795;DHT22;11564;50.920;11.612;2022-07-29T04:17:33;13.90;90.50
22795;DHT22;11564;50.920;11.612;2022-07-29T04:19:58;14.00;90.40
22795;DHT22;11564;50.920;11.612;2022-07-29T04:22:24;14.00;90.30
22795;DHT22;11564;50.920;11.612;2022-07-29T04:24:49;14.00;90.50
22795;DHT22;11564;50.920;11.612;2022-07-29T04:27:15;14.10;90.70
22795;DHT22;11564;50.920;11.612;2022-07-29T04:29:41;14.10;90.60
22795;DHT22;11564;50.920;11.612;2022-07-29T04:32:06;14.20;90.70
22795;DHT22;11564;50.920;11.612;2022-07-29T04:34:32;14.30;90.70
22795;DHT22;11564;50.920;11.612;2022-07-29T04:36:57;14.30;91.00
22795;DHT22;11564;50.920;11.612;2022-07-29T04:39:23;14.30;90.80
22795;DHT22;11564;50.920;11.612;2022-07-29T04:41:50;14.40;90.50
22795;DHT22;11564;50.920;11.612;2022-07-29T04:44:16;14.40;90.60
22795;DHT22;11564;50.920;11.612;2022-07-29T04:46:41;14.50;90.30
22795;DHT22;11564;50.920;11.612;2022-07-29T04:49:07;14.50;90.40
22795;DHT22;11564;50.920;11.612;2022-07-29T04:51:33;14.60;90.60
22795;DHT22;11564;50.920;11.612;2022-07-29T04:53:59;14.70;90.50
22795;DHT22;11564;50.920;11.612;2022-07-29T04:56:24;14.80;90.80
22795;DHT22;11564;50.920;11.612;2022-07-29T04:58:50;14.90;90.60
22795;DHT22;11564;50.920;11.612;2022-07-29T05:01:16;15.00;89.20
22795;DHT22;11564;50.920;11.612;2022-07-29T05:03:41;15.10;88.60
22795;DHT22;11564;50.920;11.612;2022-07-29T05:06:07;15.20;88.50
22795;DHT22;11564;50.920;11.612;2022-07-29T05:08:32;15.20;88.40
22795;DHT22;11564;50.920;11.612;2022-07-29T05:10:58;15.30;89.20
22795;DHT22;11564;50.920;11.612;2022-07-29T05:13:24;15.40;89.50
22795;DHT22;11564;50.920;11.612;2022-07-29T05:15:49;15.40;89.00
22795;DHT22;11564;50.920;11.612;2022-07-29T05:18:15;15.50;88.60
22795;DHT22;11564;50.920;11.612;2022-07-29T05:20:41;15.70;88.20
22795;DHT22;11564;50.920;11.612;2022-07-29T05:23:06;15.70;88.00
22795;DHT22;11564;50.920;11.612;2022-07-29T05:25:32;15.70;88.60
22795;DHT22;11564;50.920;11.612;2022-07-29T05:27:58;15.60;88.00
22795;DHT22;11564;50.920;11.612;2022-07-29T05:30:24;15.60;87.00
22795;DHT22;11564;50.920;11.612;2022-07-29T05:32:49;15.50;86.10
22795;DHT22;11564;50.920;11.612;2022-07-29T05:35:15;15.40;86.10
22795;DHT22;11564;50.920;11.612;2022-07-29T05:37:41;15.40;85.40
22795;DHT22;11564;50.920;11.612;2022-07-29T05:40:07;15.40;86.40
22795;DHT22;11564;50.920;11.612;2022-07-29T05:42:33;15.40;86.80
22795;DHT22;11564;50.920;11.612;2022-07-29T05:45:00;15.30;86.90
22795;DHT22;11564;50.920;11.612;2022-07-29T05:47:26;15.20;87.00
22795;DHT22;11564;50.920;11.612;2022-07-29T05:49:51;15.20;88.10
22795;DHT22;11564;50.920;11.612;2022-07-29T05:52:18;15.10;89.00
22795;DHT22;11564;50.920;11.612;2022-07-29T05:54:43;15.10;90.20
22795;DHT22;11564;50.920;11.612;2022-07-29T05:57:19;15.10;89.70
22795;DHT22;11564;50.920;11.612;2022-07-29T05:59:45;15.10;90.20
22795;DHT22;11564;50.920;11.612;2022-07-29T06:02:11;15.10;90.30
22795;DHT22;11564;50.920;11.612;2022-07-29T06:04:36;15.10;90.30
22795;DHT22;11564;50.920;11.612;2022-07-29T06:07:02;15.10;90.60
22795;DHT22;11564;50.920;11.612;2022-07-29T06:09:28;15.10;90.00
22795;DHT22;11564;50.920;11.612;2022-07-29T06:11:54;15.10;89.40
22795;DHT22;11564;50.920;11.612;2022-07-29T06:14:19;15.20;87.80
22795;DHT22;11564;50.920;11.612;2022-07-29T06:16:46;15.40;88.30
22795;DHT22;11564;50.920;11.612;2022-07-29T06:19:11;15.60;86.50
22795;DHT22;11564;50.920;11.612;2022-07-29T06:21:45;15.60;85.30
22795;DHT22;11564;50.920;11.612;2022-07-29T06:24:12;15.70;84.70
22795;DHT22;11564;50.920;11.612;2022-07-29T06:26:38;15.80;84.40
22795;DHT22;11564;50.920;11.612;2022-07-29T06:29:04;16.00;83.20
22795;DHT22;11564;50.920;11.612;2022-07-29T06:31:30;16.10;83.10
22795;DHT22;11564;50.920;11.612;2022-07-29T06:33:56;16.20;82.80
22795;DHT22;11564;50.920;11.612;2022-07-29T06:36:21;16.40;83.00
22795;DHT22;11564;50.920;11.612;2022-07-29T06:38:47;16.50;81.20
22795;DHT22;11564;50.920;11.612;2022-07-29T06:41:13;16.60;80.90
22795;DHT22;11564;50.920;11.612;2022-07-29T06:43:42;16.70;80.00
22795;DHT22;11564;50.920;11.612;2022-07-29T06:46:10;17.00;80.50
22795;DHT22;11564;50.920;11.612;2022-07-29T06:48:37;17.10;79.30
22795;DHT22;11564;50.920;11.612;2022-07-29T06:51:04;17.30;79.00
22795;DHT22;11564;50.920;11.612;2022-07-29T06:53:32;17.40;78.60
22795;DHT22;11564;50.920;11.612;2022-07-29T06:55:58;17.60;79.20
22795;DHT22;11564;50.920;11.612;2022-07-29T06:58:26;17.70;77.70
22795;DHT22;11564;50.920;11.612;2022-07-29T07:00:52;17.80;76.90
22795;DHT22;11564;50.920;11.612;2022-07-29T07:03:18;17.80;76.70
22795;DHT22;11564;50.920;11.612;2022-07-29T07:05:45;17.90;76.40
22795;DHT22;11564;50.920;11.612;2022-07-29T07:08:12;17.90;76.30
22795;DHT22;11564;50.920;11.612;2022-07-29T07:10:38;18.00;76.10
22795;DHT22;11564;50.920;11.612;2022-07-29T07:13:04;18.20;76.30
22795;DHT22;11564;50.920;11.612;2022-07-29T07:15:30;18.30;74.70
22795;DHT22;11564;50.920;11.612;2022-07-29T07:17:56;18.60;74.30
22795;DHT22;11564;50.920;11.612;2022-07-29T07:20:23;18.80;73.20
22795;DHT22;11564;50.920;11.612;2022-07-29T07:22:48;19.00;73.20
22795;DHT22;11564;50.920;11.612;2022-07-29T07:25:14;19.10;73.00
22795;DHT22;11564;50.920;11.612;2022-07-29T07:27:40;19.20;73.00
22795;DHT22;11564;50.920;11.612;2022-07-29T07:30:06;19.20;72.80
22795;DHT22;11564;50.920;11.612;2022-07-29T07:32:35;19.20;72.00
22795;DHT22;11564;50.920;11.612;2022-07-29T07:35:02;19.30;72.00
22795;DHT22;11564;50.920;11.612;2022-07-29T07:37:27;19.50;72.20
22795;DHT22;11564;50.920;11.612;2022-07-29T07:39:53;19.60;71.50
22795;DHT22;11564;50.920;11.612;2022-07-29T07:42:19;19.90;71.70
22795;DHT22;11564;50.920;11.612;2022-07-29T07:44:45;20.00;70.80
22795;DHT22;11564;50.920;11.612;2022-07-29T07:47:11;20.00;70.80
22795;DHT22;11564;50.920;11.612;2022-07-29T07:49:37;20.10;70.10
22795;DHT22;11564;50.920;11.612;2022-07-29T07:52:03;20.10;70.60
22795;DHT22;11564;50.920;11.612;2022-07-29T07:54:31;20.20;70.70
22795;DHT22;11564;50.920;11.612;2022-07-29T07:56:57;20.30;70.00
22795;DHT22;11564;50.920;11.612;2022-07-29T07:59:23;20.50;70.10
22795;DHT22;11564;50.920;11.612;2022-07-29T08:01:49;20.50;70.20
22795;DHT22;11564;50.920;11.612;2022-07-29T08:04:15;20.30;69.80
22795;DHT22;11564;50.920;11.612;2022-07-29T08:06:40;20.10;70.50
22795;DHT22;11564;50.920;11.612;2022-07-29T08:09:06;20.00;70.80
22795;DHT22;11564;50.920;11.612;2022-07-29T08:11:32;20.10;71.00
22795;DHT22;11564;50.920;11.612;2022-07-29T08:13:57;20.10;71.30
22795;DHT22;11564;50.920;11.612;2022-07-29T08:16:23;20.10;71.00
22795;DHT22;11564;50.920;11.612;2022-07-29T08:18:51;20.10;71.80
22795;DHT22;11564;50.920;11.612;2022-07-29T08:21:17;20.20;70.90
22795;DHT22;11564;50.920;11.612;2022-07-29T08:23:46;20.40;71.00
22795;DHT22;11564;50.920;11.612;2022-07-29T08:26:14;20.80;70.40
22795;DHT22;11564;50.920;11.612;2022-07-29T08:28:42;21.10;69.20
22795;DHT22;11564;50.920;11.612;2022-07-29T08:31:11;21.40;68.70
22795;DHT22;11564;50.920;11.612;2022-07-29T08:33:37;21.70;68.50
22795;DHT22;11564;50.920;11.612;2022-07-29T08:36:03;22.00;66.80
22795;DHT22;11564;50.920;11.612;2022-07-29T08:38:29;22.20;66.00
22795;DHT22;11564;50.920;11.612;2022-07-29T08:40:54;22.40;66.50
22795;DHT22;11564;50.920;11.612;2022-07-29T08:43:20;22.70;66.50
22795;DHT22;11564;50.920;11.612;2022-07-29T08:45:48;22.90;65.40
22795;DHT22;11564;50.920;11.612;2022-07-29T08:48:19;23.00;65.20
22795;DHT22;11564;50.920;11.612;2022-07-29T08:50:47;22.90;65.30
22795;DHT22;11564;50.920;11.612;2022-07-29T08:53:15;22.80;65.30
22795;DHT22;11564;50.920;11.612;2022-07-29T08:55:47;22.70;64.50
22795;DHT22;11564;50.920;11.612;2022-07-29T08:58:14;23.00;64.90
22795;DHT22;11564;50.920;11.612;2022-07-29T09:00:43;23.40;64.50
22795;DHT22;11564;50.920;11.612;2022-07-29T09:03:12;23.50;63.60
22795;DHT22;11564;50.920;11.612;2022-07-29T09:05:42;23.70;62.80
22795;DHT22;11564;50.920;11.612;2022-07-29T09:08:08;23.90;63.60
22795;DHT22;11564;50.920;11.612;2022-07-29T09:10:37;24.00;63.30
22795;DHT22;11564;50.920;11.612;2022-07-29T09:13:03;24.10;62.70
22795;DHT22;11564;50.920;11.612;2022-07-29T09:15:28;24.30;61.90
22795;DHT22;11564;50.920;11.612;2022-07-29T09:17:54;24.30;61.30
22795;DHT22;11564;50.920;11.612;2022-07-29T09:20:22;24.70;61.70
22795;DHT22;11564;50.920;11.612;2022-07-29T09:25:35;25.20;60.00
22795;DHT22;11564;50.920;11.612;2022-07-29T09:28:13;25.40;59.30
22795;DHT22;11564;50.920;11.612;2022-07-29T09:30:55;25.60;58.50
22795;DHT22;11564;50.920;11.612;2022-07-29T09:33:22;25.50;58.70
22795;DHT22;11564;50.920;11.612;2022-07-29T09:36:09;25.60;59.30
22795;DHT22;11564;50.920;11.612;2022-07-29T09:38:35;25.70;59.10
22795;DHT22;11564;50.920;11.612;2022-07-29T09:41:03;25.80;57.10
22795;DHT22;11564;50.920;11.612;2022-07-29T09:43:29;26.00;58.00
22795;DHT22;11564;50.920;11.612;2022-07-29T09:45:55;26.20;57.50
22795;DHT22;11564;50.920;11.612;2022-07-29T09:48:25;26.20;57.20
22795;DHT22;11564;50.920;11.612;2022-07-29T09:50:51;26.30;56.10
22795;DHT22;11564;50.920;11.612;2022-07-29T09:53:34;26.40;54.90
22795;DHT22;11564;50.920;11.612;2022-07-29T09:56:00;26.70;55.60
22795;DHT22;11564;50.920;11.612;2022-07-29T09:58:27;26.90;54.10
22795;DHT22;11564;50.920;11.612;2022-07-29T10:00:54;27.20;54.60
22795;DHT22;11564;50.920;11.612;2022-07-29T10:03:21;27.50;52.30
22795;DHT22;11564;50.920;11.612;2022-07-29T10:06:10;27.90;52.90
22795;DHT22;11564;50.920;11.612;2022-07-29T10:08:36;28.50;50.90
22795;DHT22;11564;50.920;11.612;2022-07-29T10:11:29;29.00;51.60
22795;DHT22;11564;50.920;11.612;2022-07-29T10:13:54;29.80;49.50
22795;DHT22;11564;50.920;11.612;2022-07-29T10:16:20;30.30;47.60
22795;DHT22;11564;50.920;11.612;2022-07-29T10:18:46;30.40;47.90
22795;DHT22;11564;50.920;11.612;2022-07-29T10:21:12;30.50;47.70
22795;DHT22;11564;50.920;11.612;2022-07-29T10:23:38;30.60;46.70
22795;DHT22;11564;50.920;11.612;2022-07-29T10:26:05;30.80;46.80
22795;DHT22;11564;50.920;11.612;2022-07-29T10:28:31;30.80;47.40
22795;DHT22;11564;50.920;11.612;2022-07-29T10:31:03;30.70;44.10
22795;DHT22;11564;50.920;11.612;2022-07-29T10:33:50;30.90;45.50
22795;DHT22;11564;50.920;11.612;2022-07-29T10:36:35;30.70;45.60
22795;DHT22;11564;50.920;11.612;2022-07-29T10:44:42;30.80;44.60
22795;DHT22;11564;50.920;11.612;2022-07-29T10:47:19;30.50;45.40
22795;DHT22;11564;50.920;11.612;2022-07-29T10:49:59;30.40;46.30
22795;DHT22;11564;50.920;11.612;2022-07-29T10:52:24;30.00;47.60
22795;DHT22;11564;50.920;11.612;2022-07-29T10:54:53;29.70;46.80
22795;DHT22;11564;50.920;11.612;2022-07-29T11:05:06;30.10;46.30
22795;DHT22;11564;50.920;11.612;2022-07-29T11:07:34;30.60;46.40
22795;DHT22;11564;50.920;11.612;2022-07-29T11:15:11;31.20;43.60
22795;DHT22;11564;50.920;11.612;2022-07-29T11:22:58;32.00;44.00
22795;DHT22;11564;50.920;11.612;2022-07-29T11:25:23;32.10;44.90
22795;DHT22;11564;50.920;11.612;2022-07-29T11:27:51;32.00;44.70
22795;DHT22;11564;50.920;11.612;2022-07-29T11:30:17;32.30;44.60
22795;DHT22;11564;50.920;11.612;2022-07-29T11:32:43;32.30;43.70
22795;DHT22;11564;50.920;11.612;2022-07-29T11:35:21;32.60;45.20
22795;DHT22;11564;50.920;11.612;2022-07-29T11:43:48;33.40;43.00
22795;DHT22;11564;50.920;11.612;2022-07-29T11:49:02;32.50;43.20
22795;DHT22;11564;50.920;11.612;2022-07-29T11:51:28;32.80;43.60
22795;DHT22;11564;50.920;11.612;2022-07-29T11:53:55;32.50;43.80
22795;DHT22;11564;50.920;11.612;2022-07-29T11:56:23;32.50;44.50
22795;DHT22;11564;50.920;11.612;2022-07-29T11:59:04;32.70;45.00
22795;DHT22;11564;50.920;11.612;2022-07-29T12:01:30;32.80;44.20
22795;DHT22;11564;50.920;11.612;2022-07-29T12:04:06;32.70;45.20
22795;DHT22;11564;50.920;11.612;2022-07-29T12:06:33;32.50;43.20
22795;DHT22;11564;50.920;11.612;2022-07-29T12:08:59;32.10;44.60
22795;DHT22;11564;50.920;11.612;2022-07-29T12:11:25;31.80;45.70
22795;DHT22;11564;50.920;11.612;2022-07-29T12:13:52;31.50;44.50
22795;DHT22;11564;50.920;11.612;2022-07-29T12:16:19;31.00;46.10
22795;DHT22;11564;50.920;11.612;2022-07-29T12:18:59;30.90;46.00
22795;DHT22;11564;50.920;11.612;2022-07-29T12:21:24;30.80;46.50
22795;DHT22;11564;50.920;11.612;2022-07-29T12:23:55;30.80;45.90
22795;DHT22;11564;50.920;11.612;2022-07-29T12:26:21;30.70;47.60
22795;DHT22;11564;50.920;11.612;2022-07-29T12:28:47;30.70;47.00
22795;DHT22;11564;50.920;11.612;2022-07-29T12:31:14;30.80;47.30
22795;DHT22;11564;50.920;11.612;2022-07-29T12:33:41;30.80;47.50
22795;DHT22;11564;50.920;11.612;2022-07-29T12:36:08;30.50;47.40
22795;DHT22;11564;50.920;11.612;2022-07-29T12:38:37;30.30;47.70
22795;DHT22;11564;50.920;11.612;2022-07-29T12:41:05;30.20;47.80
22795;DHT22;11564;50.920;11.612;2022-07-29T12:43:32;30.30;47.60
22795;DHT22;11564;50.920;11.612;2022-07-29T12:46:10;30.40;48.00
22795;DHT22;11564;50.920;11.612;2022-07-29T12:48:41;29.60;47.70
22795;DHT22;11564;50.920;11.612;2022-07-29T12:51:08;29.70;48.10
22795;DHT22;11564;50.920;11.612;2022-07-29T12:53:35;29.50;48.20
22795;DHT22;11564;50.920;11.612;2022-07-29T12:56:02;29.50;49.00
22795;DHT22;11564;50.920;11.612;2022-07-29T12:58:35;29.40;49.50
22795;DHT22;11564;50.920;11.612;2022-07-29T13:01:12;29.30;49.90
22795;DHT22;11564;50.920;11.612;2022-07-29T13:03:56;29.30;49.70
22795;DHT22;11564;50.920;11.612;2022-07-29T13:09:05;29.20;50.40
22795;DHT22;11564;50.920;11.612;2022-07-29T13:11:45;29.00;50.40
22795;DHT22;11564;50.920;11.612;2022-07-29T13:14:13;28.70;50.00
22795;DHT22;11564;50.920;11.612;2022-07-29T13:19:37;28.90;50.30
22795;DHT22;11564;50.920;11.612;2022-07-29T13:22:03;29.00;50.20
22795;DHT22;11564;50.920;11.612;2022-07-29T13:24:29;28.70;50.50
22795;DHT22;11564;50.920;11.612;2022-07-29T13:26:55;28.50;50.90
22795;DHT22;11564;50.920;11.612;2022-07-29T13:29:21;28.50;51.00
22795;DHT22;11564;50.920;11.612;2022-07-29T13:31:46;28.50;51.20
22795;DHT22;11564;50.920;11.612;2022-07-29T13:34:12;28.50;50.80
22795;DHT22;11564;50.920;11.612;2022-07-29T13:36:37;28.60;51.20
22795;DHT22;11564;50.920;11.612;2022-07-29T13:39:03;28.50;51.00
22795;DHT22;11564;50.920;11.612;2022-07-29T13:41:29;28.50;51.20
22795;DHT22;11564;50.920;11.612;2022-07-29T13:43:55;28.60;51.00
22795;DHT22;11564;50.920;11.612;2022-07-29T13:46:20;28.60;51.40
22795;DHT22;11564;50.920;11.612;2022-07-29T13:48:46;28.80;51.50
22795;DHT22;11564;50.920;11.612;2022-07-29T13:51:12;28.90;51.40
22795;DHT22;11564;50.920;11.612;2022-07-29T13:53:38;28.60;53.50
22795;DHT22;11564;50.920;11.612;2022-07-29T13:56:04;28.40;53.80
22795;DHT22;11564;50.920;11.612;2022-07-29T13:58:32;28.10;55.60
22795;DHT22;11564;50.920;11.612;2022-07-29T14:00:59;28.30;56.50
22795;DHT22;11564;50.920;11.612;2022-07-29T14:03:24;28.60;56.60
22795;DHT22;11564;50.920;11.612;2022-07-29T14:05:50;28.80;55.60
22795;DHT22;11564;50.920;11.612;2022-07-29T14:08:16;28.70;55.90
22795;DHT22;11564;50.920;11.612;2022-07-29T14:10:41;29.70;55.50
22795;DHT22;11564;50.920;11.612;2022-07-29T14:13:07;30.80;53.40
22795;DHT22;11564;50.920;11.612;2022-07-29T14:15:33;32.30;51.90
22795;DHT22;11564;50.920;11.612;2022-07-29T14:17:58;33.80;48.80
22795;DHT22;11564;50.920;11.612;2022-07-29T14:20:24;35.20;47.30
22795;DHT22;11564;50.920;11.612;2022-07-29T14:22:50;36.90;45.60
22795;DHT22;11564;50.920;11.612;2022-07-29T14:25:15;36.90;44.40
22795;DHT22;11564;50.920;11.612;2022-07-29T14:27:42;36.30;44.80
22795;DHT22;11564;50.920;11.612;2022-07-29T14:30:08;37.20;44.30
22795;DHT22;11564;50.920;11.612;2022-07-29T14:32:34;37.90;42.80
22795;DHT22;11564;50.920;11.612;2022-07-29T14:34:59;37.00;42.90
22795;DHT22;11564;50.920;11.612;2022-07-29T14:37:25;36.60;44.80
22795;DHT22;11564;50.920;11.612;2022-07-29T14:39:50;36.20;45.50
22795;DHT22;11564;50.920;11.612;2022-07-29T14:42:16;38.50;44.10
22795;DHT22;11564;50.920;11.612;2022-07-29T14:44:41;41.10;40.40
22795;DHT22;11564;50.920;11.612;2022-07-29T14:47:08;42.90;38.30
22795;DHT22;11564;50.920;11.612;2022-07-29T14:49:34;45.10;36.30
22795;DHT22;11564;50.920;11.612;2022-07-29T14:52:00;46.60;33.10
22795;DHT22;11564;50.920;11.612;2022-07-29T14:54:25;47.60;33.40
22795;DHT22;11564;50.920;11.612;2022-07-29T14:56:51;48.50;31.60
22795;DHT22;11564;50.920;11.612;2022-07-29T14:59:20;49.00;31.00
22795;DHT22;11564;50.920;11.612;2022-07-29T15:01:46;50.10;29.80
22795;DHT22;11564;50.920;11.612;2022-07-29T15:04:11;50.50;29.60
22795;DHT22;11564;50.920;11.612;2022-07-29T15:06:37;50.80;29.40
22795;DHT22;11564;50.920;11.612;2022-07-29T15:09:03;51.40;28.60
22795;DHT22;11564;50.920;11.612;2022-07-29T15:11:28;50.70;28.50
22795;DHT22;11564;50.920;11.612;2022-07-29T15:13:54;49.50;28.80
22795;DHT22;11564;50.920;11.612;2022-07-29T15:16:20;49.20;29.00
22795;DHT22;11564;50.920;11.612;2022-07-29T15:18:45;49.20;29.20
22795;DHT22;11564;50.920;11.612;2022-07-29T15:21:11;50.30;28.80
22795;DHT22;11564;50.920;11.612;2022-07-29T15:23:36;50.70;28.40
22795;DHT22;11564;50.920;11.612;2022-07-29T15:26:03;50.60;27.90
22795;DHT22;11564;50.920;11.612;2022-07-29T15:28:29;50.80;27.70
22795;DHT22;11564;50.920;11.612;2022-07-29T15:30:55;50.90;27.90
22795;DHT22;11564;50.920;11.612;2022-07-29T15:33:20;51.50;27.10
22795;DHT22;11564;50.920;11.612;2022-07-29T15:35:46;51.40;27.10
22795;DHT22;11564;50.920;11.612;2022-07-29T15:38:11;52.10;26.80
22795;DHT22;11564;50.920;11.612;2022-07-29T15:40:40;51.60;26.80
22795;DHT22;11564;50.920;11.612;2022-07-29T15:43:08;49.90;27.10
22795;DHT22;11564;50.920;11.612;2022-07-29T15:45:37;49.60;27.50
22795;DHT22;11564;50.920;11.612;2022-07-29T15:48:05;48.50;28.20
22795;DHT22;11564;50.920;11.612;2022-07-29T15:50:32;47.30;28.40
22795;DHT22;11564;50.920;11.612;2022-07-29T15:52:58;45.40;29.70
22795;DHT22;11564;50.920;11.612;2022-07-29T15:55:24;43.90;31.40
22795;DHT22;11564;50.920;11.612;2022-07-29T15:57:50;42.30;32.90
22795;DHT22;11564;50.920;11.612;2022-07-29T16:00:16;41.10;34.50
22795;DHT22;11564;50.920;11.612;2022-07-29T16:02:42;40.70;34.60
22795;DHT22;11564;50.920;11.612;2022-07-29T16:05:08;40.40;34.90
22795;DHT22;11564;50.920;11.612;2022-07-29T16:07:34;40.20;35.60
22795;DHT22;11564;50.920;11.612;2022-07-29T16:10:00;39.80;36.00
22795;DHT22;11564;50.920;11.612;2022-07-29T16:12:26;39.90;36.20